createdAt,value
2019-02-27T00:04:02.516Z,41.37
2019-02-27T00:06:50.636Z,39.63
2019-02-27T00:09:38.422Z,42.03
2019-02-27T00:12:26.528Z,39.43
2019-02-27T00:15:07.431Z,39.73
2019-02-27T00:17:51.160Z,38.60
2019-02-27T00:20:30.793Z,40.40
2019-02-27T00:23:11.548Z,40.80
2019-02-27T00:25:52.405Z,40.83
2019-02-27T00:28:33.335Z,40.80
2019-02-27T00:31:14.040Z,41.50
2019-02-27T00:33:59.478Z,39.27
2019-02-27T00:36:37.409Z,41.03
2019-02-27T00:42:00.312Z,43.87
2019-02-27T00:44:41.566Z,43.43
2019-02-27T00:47:21.948Z,45.70
2019-02-27T00:50:05.787Z,48.17
2019-02-27T00:52:45.011Z,48.57
2019-02-27T00:55:25.846Z,46.77
2019-02-27T00:58:06.881Z,43.37
2019-02-27T01:00:47.621Z,40.93
2019-02-27T01:03:28.657Z,42.30
2019-02-27T01:06:08.854Z,43.87
2019-02-27T01:08:49.848Z,41.10
2019-02-27T01:11:30.513Z,40.87
2019-02-27T01:14:11.536Z,38.77
2019-02-27T01:16:52.293Z,37.87
2019-02-27T01:19:32.974Z,38.50
2019-02-27T01:22:01.407Z,38.87
2019-02-27T01:24:50.119Z,38.43
2019-02-27T01:27:19.353Z,38.20
2019-02-27T01:30:26.440Z,37.37
2019-02-27T01:33:14.195Z,39.30
2019-02-27T01:36:01.948Z,37.17
2019-02-27T01:38:49.962Z,37.50
2019-02-27T01:41:37.728Z,36.77
2019-02-27T01:44:25.549Z,38.97
2019-02-27T01:47:13.549Z,38.13
2019-02-27T01:50:01.290Z,37.03
2019-02-27T01:52:49.060Z,38.30
2019-02-27T01:55:36.822Z,37.70
2019-02-27T01:58:24.576Z,35.63
2019-02-27T02:01:12.320Z,35.07
2019-02-27T02:04:00.076Z,37.63
2019-02-27T02:06:47.846Z,37.30
2019-02-27T02:09:36.296Z,34.33
2019-02-27T02:12:24.125Z,36.63
2019-02-27T02:15:32.608Z,36.50
2019-02-27T02:18:14.483Z,35.00
2019-02-27T02:20:58.044Z,37.03
2019-02-27T02:23:38.109Z,35.23
2019-02-27T02:26:18.873Z,34.70
2019-02-27T02:28:59.567Z,34.23
2019-02-27T02:31:41.684Z,33.87
2019-02-27T02:34:23.128Z,35.00
2019-02-27T02:37:03.944Z,33.20
2019-02-27T02:39:44.794Z,33.43
2019-02-27T02:42:25.901Z,35.60
2019-02-27T02:45:06.857Z,34.37
2019-02-27T02:47:48.247Z,34.40
2019-02-27T02:50:28.787Z,32.57
2019-02-27T02:53:09.593Z,32.93
2019-02-27T02:55:50.083Z,32.97
2019-02-27T02:58:31.404Z,33.07
2019-02-27T03:01:15.161Z,32.60
2019-02-27T03:03:54.020Z,32.93
2019-02-27T03:06:36.022Z,34.00
2019-02-27T03:09:16.727Z,34.30
2019-02-27T03:11:57.534Z,32.93
2019-02-27T03:14:38.464Z,33.87
2019-02-27T03:17:19.348Z,33.93
2019-02-27T03:20:00.458Z,33.27
2019-02-27T03:22:41.850Z,33.37
2019-02-27T03:25:22.850Z,32.73
2019-02-27T03:28:05.088Z,32.37
2019-02-27T03:30:45.742Z,33.57
2019-02-27T03:33:27.383Z,32.20
2019-02-27T03:36:07.721Z,33.03
2019-02-27T03:38:48.468Z,31.87
2019-02-27T03:41:29.449Z,30.70
2019-02-27T03:44:10.750Z,30.07
2019-02-27T03:46:51.346Z,30.73
2019-02-27T03:49:39.713Z,33.13
2019-02-27T03:52:15.160Z,30.80
2019-02-27T03:54:58.039Z,30.13
2019-02-27T03:57:37.952Z,30.13
2019-02-27T04:00:19.363Z,29.37
2019-02-27T04:02:59.899Z,30.10
2019-02-27T04:05:42.156Z,31.23
2019-02-27T04:08:23.585Z,30.20
2019-02-27T04:11:05.903Z,30.13
2019-02-27T04:13:47.099Z,29.87
2019-02-27T04:16:29.350Z,29.80
2019-02-27T04:19:10.377Z,27.83
2019-02-27T04:21:51.149Z,29.03
2019-02-27T04:24:31.893Z,30.77
2019-02-27T04:27:12.759Z,30.47
2019-02-27T04:29:53.459Z,29.93
2019-02-27T04:32:34.405Z,28.40
2019-02-27T04:35:15.434Z,31.37
2019-02-27T04:37:55.837Z,30.67
2019-02-27T04:40:36.805Z,30.97
2019-02-27T04:43:17.780Z,30.00
2019-02-27T04:45:58.364Z,29.63
2019-02-27T04:48:39.142Z,30.40
2019-02-27T04:51:20.084Z,30.47
2019-02-27T04:54:00.660Z,31.93
2019-02-27T04:56:41.548Z,30.67
2019-02-27T04:59:22.285Z,29.77
2019-02-27T05:02:03.276Z,30.60
2019-02-27T05:04:44.064Z,31.30
2019-02-27T05:07:25.108Z,30.27
2019-02-27T05:10:07.276Z,29.47
2019-02-27T05:12:49.388Z,31.57
2019-02-27T05:15:29.872Z,31.37
2019-02-27T05:18:10.494Z,33.27
2019-02-27T05:20:51.555Z,31.57
2019-02-27T05:23:33.588Z,30.70
2019-02-27T05:26:14.593Z,29.93
2019-02-27T05:28:55.568Z,31.63
2019-02-27T05:31:36.642Z,31.17
2019-02-27T05:34:17.450Z,30.70
2019-02-27T05:36:58.400Z,30.23
2019-02-27T05:39:38.965Z,31.47
2019-02-27T05:42:19.553Z,31.90
2019-02-27T05:45:00.463Z,31.23
2019-02-27T05:47:44.729Z,31.00
2019-02-27T05:50:23.907Z,32.93
2019-02-27T05:53:04.448Z,31.80
2019-02-27T05:55:45.744Z,31.57
2019-02-27T05:58:26.805Z,32.33
2019-02-27T06:01:07.586Z,31.87
2019-02-27T06:03:49.416Z,32.20
2019-02-27T06:06:30.692Z,32.03
2019-02-27T06:09:11.084Z,33.07
2019-02-27T06:11:51.968Z,30.87
2019-02-27T06:14:32.924Z,33.07
2019-02-27T06:17:13.773Z,32.67
2019-02-27T06:19:54.893Z,31.53
2019-02-27T06:22:36.116Z,31.23
2019-02-27T06:25:44.592Z,32.27
2019-02-27T06:28:32.352Z,31.47
2019-02-27T06:31:02.582Z,29.70
2019-02-27T06:33:30.908Z,30.80
2019-02-27T06:36:18.684Z,29.93
2019-02-27T06:39:08.637Z,30.80
2019-02-27T06:41:56.325Z,31.90
2019-02-27T06:44:44.088Z,31.53
2019-02-27T06:47:33.045Z,32.30
2019-02-27T06:50:25.177Z,31.70
2019-02-27T06:53:15.569Z,31.23
2019-02-27T06:56:03.403Z,31.87
2019-02-27T06:58:50.746Z,32.20
2019-02-27T07:01:39.835Z,31.20
2019-02-27T07:04:27.642Z,32.67
2019-02-27T07:07:15.384Z,32.63
2019-02-27T07:10:04.147Z,30.53
2019-02-27T07:12:54.444Z,31.87
2019-02-27T07:15:41.409Z,30.23
2019-02-27T07:18:22.422Z,31.70
2019-02-27T07:21:03.669Z,29.50
2019-02-27T07:23:44.585Z,30.27
2019-02-27T07:26:25.573Z,32.10
2019-02-27T07:29:06.354Z,32.10
2019-02-27T07:31:49.574Z,30.83
2019-02-27T07:34:29.952Z,32.90
2019-02-27T07:37:12.940Z,32.37
2019-02-27T07:39:53.162Z,31.57
2019-02-27T07:42:34.000Z,30.87
2019-02-27T07:45:14.950Z,30.47
2019-02-27T07:47:55.714Z,31.13
2019-02-27T07:50:36.625Z,31.63
2019-02-27T07:53:18.202Z,29.20
2019-02-27T07:55:47.438Z,30.40
2019-02-27T07:58:36.312Z,30.93
2019-02-27T08:01:24.254Z,31.90
2019-02-27T08:04:13.542Z,31.03
2019-02-27T08:07:01.342Z,30.50
2019-02-27T08:09:49.109Z,31.50
2019-02-27T08:12:36.897Z,30.93
2019-02-27T08:15:25.507Z,30.77
2019-02-27T08:18:14.194Z,31.03
2019-02-27T08:21:02.018Z,31.60
2019-02-27T08:23:49.809Z,31.73
2019-02-27T08:26:37.598Z,32.07
2019-02-27T08:29:25.413Z,32.50
2019-02-27T08:32:13.192Z,31.00
2019-02-27T08:35:01.282Z,31.20
2019-02-27T08:37:49.048Z,31.87
2019-02-27T08:40:36.832Z,33.17
2019-02-27T08:43:24.602Z,30.53
2019-02-27T08:46:12.400Z,32.00
2019-02-27T08:49:00.485Z,31.97
2019-02-27T08:51:48.276Z,32.57
2019-02-27T08:54:31.959Z,33.03
2019-02-27T08:57:11.113Z,31.83
2019-02-27T08:59:52.002Z,30.93
2019-02-27T09:02:32.417Z,30.33
2019-02-27T09:05:13.134Z,30.53
2019-02-27T09:07:53.977Z,31.23
2019-02-27T09:10:34.901Z,30.73
2019-02-27T09:13:15.826Z,31.83
2019-02-27T09:15:56.378Z,29.47
2019-02-27T09:18:37.255Z,30.97
2019-02-27T09:21:17.921Z,28.83
2019-02-27T09:23:58.744Z,29.37
2019-02-27T09:26:39.918Z,29.40
2019-02-27T09:29:20.602Z,29.27
2019-02-27T09:32:01.601Z,31.30
2019-02-27T09:34:42.142Z,29.07
2019-02-27T09:37:23.193Z,28.87
2019-02-27T09:40:05.726Z,29.03
2019-02-27T09:42:46.626Z,29.50
2019-02-27T09:45:27.658Z,29.33
2019-02-27T09:48:08.930Z,27.33
2019-02-27T09:50:49.895Z,29.13
2019-02-27T09:53:30.590Z,30.47
2019-02-27T09:56:11.724Z,28.63
2019-02-27T09:58:52.226Z,29.13
2019-02-27T10:01:35.195Z,29.70
2019-02-27T10:04:15.587Z,29.87
2019-02-27T10:06:56.413Z,29.30
2019-02-27T10:09:37.454Z,28.43
2019-02-27T10:12:18.578Z,28.27
2019-02-27T10:14:59.449Z,29.80
2019-02-27T10:17:41.129Z,27.80
2019-02-27T10:20:22.710Z,27.33
2019-02-27T10:23:03.414Z,27.07
2019-02-27T10:25:44.375Z,27.50
2019-02-27T10:28:25.196Z,28.63
2019-02-27T10:31:06.603Z,25.43
2019-02-27T10:33:47.281Z,26.27
2019-02-27T10:36:28.211Z,26.23
2019-02-27T10:39:08.464Z,26.03
2019-02-27T10:41:50.532Z,24.83
2019-02-27T10:44:33.926Z,26.27
2019-02-27T10:47:14.444Z,24.83
2019-02-27T10:49:55.234Z,25.53
2019-02-27T10:52:36.286Z,25.10
2019-02-27T10:55:17.045Z,25.70
2019-02-27T10:57:57.527Z,23.83
2019-02-27T11:00:37.956Z,25.53
2019-02-27T11:03:19.063Z,24.27
2019-02-27T11:05:59.672Z,24.13
2019-02-27T11:08:40.246Z,24.43
2019-02-27T11:11:21.085Z,26.70
2019-02-27T11:14:02.028Z,24.17
2019-02-27T11:16:42.560Z,23.87
2019-02-27T11:19:23.327Z,25.03
2019-02-27T11:22:04.563Z,23.43
2019-02-27T11:24:49.256Z,23.73
2019-02-27T11:27:27.858Z,24.67
2019-02-27T11:30:08.603Z,23.90
2019-02-27T11:32:49.253Z,23.40
2019-02-27T11:35:30.564Z,21.50
2019-02-27T11:38:10.913Z,22.87
2019-02-27T11:40:51.758Z,23.70
2019-02-27T11:43:32.775Z,23.33
2019-02-27T11:46:13.103Z,22.80
2019-02-27T11:48:54.066Z,23.83
2019-02-27T11:51:34.733Z,23.50
2019-02-27T11:54:15.553Z,22.50
2019-02-27T11:56:57.044Z,22.77
2019-02-27T11:59:38.371Z,23.93
2019-02-27T12:02:26.639Z,21.90
2019-02-27T12:05:02.565Z,21.77
2019-02-27T12:07:43.381Z,22.23
2019-02-27T12:10:23.941Z,15.30
2019-02-27T12:13:05.009Z,20.60
2019-02-27T12:15:46.408Z,15.50
2019-02-27T12:18:26.653Z,22.33
2019-02-27T12:21:07.433Z,19.90
2019-02-27T12:23:47.942Z,20.13
2019-02-27T12:26:28.515Z,19.53
2019-02-27T12:29:09.866Z,19.07
2019-02-27T12:31:50.226Z,19.20
2019-02-27T12:34:30.561Z,18.87
2019-02-27T12:37:19.252Z,18.43
2019-02-27T12:39:53.731Z,17.10
2019-02-27T12:42:37.376Z,16.60
2019-02-27T12:45:16.987Z,16.47
2019-02-27T12:47:57.718Z,16.77
2019-02-27T12:50:38.237Z,17.60
2019-02-27T12:53:21.640Z,17.37
2019-02-27T12:56:01.608Z,18.43
2019-02-27T12:58:42.642Z,17.57
2019-02-27T13:01:23.490Z,17.30
2019-02-27T13:04:04.211Z,17.50
2019-02-27T13:06:45.206Z,18.17
2019-02-27T13:09:25.562Z,10.60
2019-02-27T13:12:06.528Z,15.43
2019-02-27T13:14:47.282Z,13.70
2019-02-27T13:17:27.971Z,15.10
2019-02-27T13:20:09.080Z,18.67
2019-02-27T13:22:51.832Z,7.20
2019-02-27T13:25:32.374Z,17.77
2019-02-27T13:28:14.661Z,11.00
2019-02-27T13:30:56.034Z,7.30
2019-02-27T13:33:38.758Z,7.17
2019-02-27T13:36:19.722Z,5.87
2019-02-27T13:39:01.126Z,6.37
2019-02-27T13:41:42.464Z,6.27
2019-02-27T13:44:23.605Z,10.67
2019-02-27T13:47:04.671Z,15.43
2019-02-27T13:49:47.329Z,7.93
2019-02-27T13:52:29.106Z,6.40
2019-02-27T13:55:11.165Z,5.93
2019-02-27T13:57:53.224Z,13.90
2019-02-27T14:00:34.029Z,15.30
2019-02-27T14:03:14.446Z,5.17
2019-02-27T14:05:55.702Z,6.40
2019-02-27T14:11:35.398Z,14.60
2019-02-27T14:14:17.662Z,4.73
2019-02-27T14:16:58.644Z,5.87
2019-02-27T14:19:39.342Z,14.57
2019-02-27T14:22:19.958Z,15.30
2019-02-27T14:25:00.911Z,12.80
2019-02-27T14:27:41.552Z,13.73
2019-02-27T14:30:22.278Z,7.10
2019-02-27T14:33:03.084Z,10.70
2019-02-27T14:35:44.158Z,10.27
2019-02-27T14:38:24.641Z,16.03
2019-02-27T14:41:05.217Z,14.63
2019-02-27T14:43:45.575Z,4.40
2019-02-27T14:46:26.250Z,10.73
2019-02-27T14:49:07.098Z,12.27
2019-02-27T14:51:48.254Z,7.40
2019-02-27T14:54:29.170Z,10.23
2019-02-27T14:57:10.025Z,14.93
2019-02-27T14:59:51.330Z,7.30
2019-02-27T15:02:31.749Z,13.53
2019-02-27T15:05:12.909Z,14.17
2019-02-27T15:07:54.878Z,13.57
2019-02-27T15:10:40.068Z,14.57
2019-02-27T15:13:18.837Z,5.83
2019-02-27T15:15:59.106Z,4.37
2019-02-27T15:18:39.993Z,10.37
2019-02-27T15:21:20.458Z,6.67
2019-02-27T15:24:01.365Z,3.53
2019-02-27T15:26:45.198Z,4.17
2019-02-27T15:29:25.084Z,4.07
2019-02-27T15:32:05.657Z,7.10
2019-02-27T15:34:47.075Z,14.97
2019-02-27T15:37:27.561Z,16.73
2019-02-27T15:40:08.664Z,16.30
2019-02-27T15:42:49.424Z,15.43
2019-02-27T15:45:30.133Z,12.33
2019-02-27T15:48:10.912Z,4.17
2019-02-27T15:50:54.079Z,3.37
2019-02-27T15:53:33.853Z,15.33
2019-02-27T15:56:02.282Z,3.30
2019-02-27T15:58:50.080Z,8.90
2019-02-27T16:01:38.512Z,2.70
2019-02-27T16:04:27.449Z,14.20
2019-02-27T16:07:15.238Z,4.63
2019-02-27T16:10:06.787Z,13.60
2019-02-27T16:12:53.111Z,15.67
2019-02-27T16:15:41.253Z,15.90
2019-02-27T16:18:29.292Z,15.17
2019-02-27T16:21:11.589Z,11.07
2019-02-27T16:23:52.153Z,15.50
2019-02-27T16:26:33.174Z,15.53
2019-02-27T16:29:13.998Z,15.60
2019-02-27T16:31:54.659Z,16.43
2019-02-27T16:34:35.386Z,17.97
2019-02-27T16:37:03.847Z,18.97
2019-02-27T16:39:51.628Z,17.27
2019-02-27T16:45:41.867Z,18.27
2019-02-27T16:48:31.169Z,17.13
2019-02-27T16:51:19.255Z,15.97
2019-02-27T16:54:07.042Z,16.10
2019-02-27T16:56:54.836Z,17.93
2019-02-27T16:59:45.316Z,18.07
2019-02-27T17:02:32.430Z,17.20
2019-02-27T17:05:20.332Z,17.40
2019-02-27T17:08:08.107Z,16.47
2019-02-27T17:10:56.161Z,15.43
2019-02-27T17:13:43.945Z,15.97
2019-02-27T17:16:31.737Z,16.37
2019-02-27T17:19:19.542Z,16.00
2019-02-27T17:22:07.332Z,15.40
2019-02-27T17:24:55.831Z,15.67
2019-02-27T17:27:49.846Z,15.93
2019-02-27T17:30:37.813Z,16.23
2019-02-27T17:33:24.786Z,15.77
2019-02-27T17:36:05.050Z,17.13
2019-02-27T17:38:49.925Z,16.53
2019-02-27T17:41:28.282Z,14.97
2019-02-27T17:44:09.235Z,16.20
2019-02-27T17:46:54.839Z,15.80
2019-02-27T17:49:35.850Z,15.43
2019-02-27T17:52:16.762Z,14.83
2019-02-27T17:54:57.715Z,14.50
2019-02-27T17:57:37.990Z,14.00
2019-02-27T18:00:20.241Z,14.93
2019-02-27T18:03:00.478Z,14.33
2019-02-27T18:05:41.389Z,15.03
2019-02-27T18:08:22.016Z,14.90
2019-02-27T18:11:03.227Z,15.93
2019-02-27T18:13:43.829Z,15.93
2019-02-27T18:16:27.964Z,16.03
2019-02-27T18:19:08.714Z,16.63
2019-02-27T18:21:49.403Z,17.10
2019-02-27T18:24:33.312Z,16.10
2019-02-27T18:27:12.641Z,18.70
2019-02-27T18:29:53.113Z,16.67
2019-02-27T18:32:34.378Z,16.03
2019-02-27T18:35:15.129Z,18.03
2019-02-27T18:37:55.877Z,17.40
2019-02-27T18:40:36.245Z,17.30
2019-02-27T18:43:17.410Z,18.63
2019-02-27T18:45:58.490Z,16.80
2019-02-27T18:48:43.517Z,18.57
2019-02-27T18:51:22.301Z,19.53
2019-02-27T18:54:03.199Z,17.53
2019-02-27T18:56:44.089Z,19.27
2019-02-27T18:59:29.372Z,18.50
2019-02-27T19:02:07.753Z,17.87
2019-02-27T19:04:48.370Z,17.67
2019-02-27T19:07:28.924Z,16.80
2019-02-27T19:10:09.633Z,17.13
2019-02-27T19:12:50.275Z,18.17
2019-02-27T19:15:29.074Z,17.23
2019-02-27T19:18:16.881Z,17.03
2019-02-27T19:21:04.654Z,17.47
2019-02-27T19:23:45.309Z,16.57
2019-02-27T19:26:26.025Z,16.70
2019-02-27T19:29:06.909Z,17.83
2019-02-27T19:31:48.358Z,17.83
2019-02-27T19:34:30.552Z,18.37
2019-02-27T19:37:11.750Z,19.40
2019-02-27T19:39:53.374Z,18.63
2019-02-27T19:42:35.222Z,19.20
2019-02-27T19:45:16.050Z,18.27
2019-02-27T19:47:56.758Z,19.40
2019-02-27T19:50:37.544Z,18.53
2019-02-27T19:53:18.545Z,18.83
2019-02-27T19:56:01.568Z,17.63
2019-02-27T19:58:41.922Z,17.87
2019-02-27T20:01:22.754Z,18.47
2019-02-27T20:04:09.065Z,18.27
2019-02-27T20:06:46.688Z,18.03
2019-02-27T20:09:27.621Z,19.10
2019-02-27T20:12:09.614Z,20.27
2019-02-27T20:14:50.142Z,18.87
2019-02-27T20:17:32.938Z,18.30
2019-02-27T20:20:13.573Z,18.37
2019-02-27T20:22:54.950Z,19.70
2019-02-27T20:25:35.633Z,20.07
2019-02-27T20:28:16.907Z,19.43
2019-02-27T20:30:57.529Z,18.87
2019-02-27T20:33:38.771Z,19.50
2019-02-27T20:36:19.577Z,19.87
2019-02-27T20:39:00.630Z,19.07
2019-02-27T20:41:43.849Z,18.13
2019-02-27T20:44:23.802Z,20.87
2019-02-27T20:47:05.020Z,20.60
2019-02-27T20:49:46.446Z,20.77
2019-02-27T20:52:28.066Z,19.70
2019-02-27T20:55:09.114Z,20.57
2019-02-27T20:57:39.560Z,19.60
2019-02-27T21:00:27.130Z,18.77
2019-02-27T21:03:14.926Z,19.67
2019-02-27T21:06:03.039Z,19.23
2019-02-27T21:08:50.830Z,19.87
2019-02-27T21:11:38.610Z,19.80
2019-02-27T21:14:27.384Z,20.80
2019-02-27T21:17:19.444Z,20.13
2019-02-27T21:20:26.386Z,20.13
2019-02-27T21:23:14.180Z,19.47
2019-02-27T21:26:01.961Z,19.13
2019-02-27T21:28:58.284Z,19.13
2019-02-27T21:31:39.272Z,19.80
2019-02-27T21:34:27.172Z,19.40
2019-02-27T21:37:16.201Z,20.43
2019-02-27T21:40:25.465Z,19.73
2019-02-27T21:43:13.474Z,19.03
2019-02-27T21:46:01.278Z,20.00
2019-02-27T21:48:49.394Z,19.63
2019-02-27T21:51:37.185Z,19.03
2019-02-27T21:54:25.207Z,19.50
2019-02-27T21:57:12.970Z,20.20
2019-02-27T22:00:00.769Z,19.67
2019-02-27T22:02:41.851Z,19.53
2019-02-27T22:05:22.770Z,18.93
2019-02-27T22:08:05.495Z,19.60
2019-02-27T22:10:46.498Z,19.37
2019-02-27T22:13:30.281Z,18.40
2019-02-27T22:16:10.025Z,19.80
2019-02-27T22:18:50.990Z,20.03
2019-02-27T22:21:34.082Z,19.40
2019-02-27T22:24:14.061Z,20.43
2019-02-27T22:26:54.718Z,20.20
2019-02-27T22:29:35.723Z,20.50
2019-02-27T22:32:16.930Z,19.47
2019-02-27T22:34:59.272Z,20.70
2019-02-27T22:37:40.414Z,21.00
2019-02-27T22:40:21.299Z,20.40
2019-02-27T22:43:02.241Z,19.77
2019-02-27T22:45:44.093Z,19.33
2019-02-27T22:48:27.846Z,20.50
2019-02-27T22:51:07.986Z,21.30
2019-02-27T22:53:48.205Z,19.47
2019-02-27T22:56:29.069Z,19.33
2019-02-27T22:59:10.243Z,21.07
2019-02-27T23:01:51.032Z,20.47
2019-02-27T23:04:31.630Z,20.50
2019-02-27T23:07:12.140Z,19.87
2019-02-27T23:09:53.063Z,19.73
2019-02-27T23:12:33.846Z,21.13
2019-02-27T23:15:15.894Z,19.63
2019-02-27T23:17:56.090Z,20.20
2019-02-27T23:20:37.396Z,19.47
2019-02-27T23:23:06.427Z,19.77
2019-02-27T23:25:54.463Z,20.40
2019-02-27T23:28:42.668Z,20.20
2019-02-27T23:31:31.040Z,19.60
2019-02-27T23:34:19.492Z,20.63
2019-02-27T23:37:08.011Z,20.77
2019-02-27T23:39:56.427Z,21.03
2019-02-27T23:42:44.636Z,22.47
2019-02-27T23:45:33.147Z,21.97
2019-02-27T23:51:16.106Z,23.07
